Time,TemperatureF,DewpointF,PressureIn,WindDirection,WindDirectionDegrees,WindSpeedMPH,WindSpeedGustMPH,Humidity,HourlyPrecipIn,Conditions,Clouds,dailyrainin,SoftwareType,DateUTC
2013-07-30 00:03:00,59.0,57.0,-100.00,North,10,0.0,1.0,92,0.00,,,0.00,,2013-07-30 08:03:00,
2013-07-30 00:12:00,59.0,57.0,-100.00,North,10,0.0,1.0,92,0.00,,,0.00,,2013-07-30 08:12:00,
2013-07-30 00:20:00,58.0,56.0,-100.00,East,95,0.0,1.0,94,0.00,,,0.00,,2013-07-30 08:20:00,
2013-07-30 00:22:00,59.0,57.0,-100.00,North,5,1.0,2.0,93,0.00,,,0.00,,2013-07-30 08:22:00,
2013-07-30 00:33:00,59.0,57.0,-100.00,North,5,1.0,2.0,93,0.00,,,0.00,,2013-07-30 08:33:00,
2013-07-30 00:42:00,59.0,57.0,-100.00,North,5,1.0,2.0,93,0.00,,,0.00,,2013-07-30 08:42:00,
2013-07-30 01:02:00,58.0,56.0,-100.00,East,95,0.0,1.0,94,0.00,,,0.00,,2013-07-30 09:02:00,
2013-07-30 01:12:00,58.0,56.0,-100.00,East,95,0.0,1.0,94,0.00,,,0.00,,2013-07-30 09:12:00,
2013-07-30 01:32:00,57.0,55.0,-100.00,ESE,110,0.0,1.0,95,0.00,,,0.00,,2013-07-30 09:32:00,
2013-07-30 01:43:00,57.0,55.0,-100.00,ESE,110,0.0,1.0,95,0.00,,,0.00,,2013-07-30 09:43:00,
2013-07-30 01:53:00,56.0,55.0,-100.00,North,10,0.0,0.0,95,0.00,,,0.00,,2013-07-30 09:53:00,
2013-07-30 02:02:00,56.0,55.0,-100.00,North,10,0.0,0.0,95,0.00,,,0.00,,2013-07-30 10:02:00,
2013-07-30 02:12:00,56.0,55.0,-100.00,North,10,0.0,0.0,95,0.00,,,0.00,,2013-07-30 10:12:00,
2013-07-30 02:43:00,56.0,54.0,-100.00,NE,50,0.0,1.0,96,0.00,,,0.00,,2013-07-30 10:43:00,
2013-07-30 03:02:00,55.0,54.0,-100.00,NNE,30,1.0,1.0,96,0.00,,,0.00,,2013-07-30 11:02:00,
2013-07-30 03:11:00,55.0,54.0,-100.00,NNE,30,1.0,1.0,96,0.00,,,0.00,,2013-07-30 11:11:00,
2013-07-30 03:22:00,54.0,53.0,-100.00,NNE,25,0.0,0.0,96,0.00,,,0.00,,2013-07-30 11:22:00,
2013-07-30 03:33:00,54.0,53.0,-100.00,NNE,25,0.0,0.0,96,0.00,,,0.00,,2013-07-30 11:33:00,
2013-07-30 03:43:00,54.0,53.0,-100.00,NNE,25,0.0,0.0,96,0.00,,,0.00,,2013-07-30 11:43:00,
2013-07-30 03:53:00,54.0,53.0,-100.00,NNE,30,0.0,0.0,96,0.00,,,0.00,,2013-07-30 11:53:00,
2013-07-30 04:12:00,54.0,53.0,-100.00,NNE,30,0.0,0.0,96,0.00,,,0.00,,2013-07-30 12:12:00,
2013-07-30 04:22:00,54.0,52.0,-100.00,North,0,0.0,0.0,96,0.00,,,0.00,,2013-07-30 12:22:00,
2013-07-30 04:33:00,54.0,52.0,-100.00,North,0,0.0,0.0,96,0.00,,,0.00,,2013-07-30 12:33:00,
2013-07-30 04:42:00,54.0,52.0,-100.00,North,0,0.0,0.0,96,0.00,,,0.00,,2013-07-30 12:42:00,
2013-07-30 05:02:00,53.0,52.0,-100.00,NNW,340,0.0,0.0,96,0.00,,,0.00,,2013-07-30 13:02:00,
2013-07-30 05:12:00,53.0,52.0,-100.00,NNW,340,0.0,0.0,96,0.00,,,0.00,,2013-07-30 13:12:00,
2013-07-30 05:32:00,53.0,52.0,-100.00,NNE,20,0.0,0.0,96,0.00,,,0.00,,2013-07-30 13:32:00,
2013-07-30 05:42:00,53.0,52.0,-100.00,NNE,20,0.0,0.0,96,0.00,,,0.00,,2013-07-30 13:42:00,
2013-07-30 06:02:00,53.0,52.0,-100.00,North,0,0.0,0.0,96,0.00,,,0.00,,2013-07-30 14:02:00,
2013-07-30 06:12:00,53.0,52.0,-100.00,North,0,0.0,0.0,96,0.00,,,0.00,,2013-07-30 14:12:00,
2013-07-30 06:32:00,53.0,52.0,-100.00,WNW,300,0.0,0.0,96,0.00,,,0.00,,2013-07-30 14:32:00,
2013-07-30 06:43:00,53.0,52.0,-100.00,WNW,300,0.0,0.0,96,0.00,,,0.00,,2013-07-30 14:43:00,
2013-07-30 07:02:00,53.0,52.0,-100.00,North,10,0.0,1.0,96,0.00,,,0.00,,2013-07-30 15:02:00,
2013-07-30 07:12:00,53.0,52.0,-100.00,North,10,0.0,1.0,96,0.00,,,0.00,,2013-07-30 15:12:00,
2013-07-30 07:20:00,53.0,52.0,-100.00,NNW,335,0.0,0.0,96,0.00,,,0.00,,2013-07-30 15:20:00,
2013-07-30 07:33:00,53.0,52.0,-100.00,WSW,240,0.0,1.0,96,0.00,,,0.00,,2013-07-30 15:33:00,
2013-07-30 07:43:00,53.0,52.0,-100.00,WSW,240,0.0,1.0,96,0.00,,,0.00,,2013-07-30 15:43:00,
2013-07-30 08:02:00,53.0,52.0,-100.00,NNW,335,0.0,0.0,96,0.00,,,0.00,,2013-07-30 16:02:00,
2013-07-30 08:12:00,53.0,52.0,-100.00,NNW,335,0.0,0.0,96,0.00,,,0.00,,2013-07-30 16:12:00,
2013-07-30 08:43:00,58.0,57.0,-100.00,West,265,0.0,1.0,96,0.00,,,0.00,,2013-07-30 16:43:00,
2013-07-30 09:02:00,61.0,56.0,-100.00,SW,235,1.0,2.0,83,0.00,,,0.00,,2013-07-30 17:02:00,
2013-07-30 09:12:00,61.0,56.0,-100.00,SW,235,1.0,2.0,83,0.00,,,0.00,,2013-07-30 17:12:00,
2013-07-30 09:32:00,64.0,54.0,-100.00,SW,230,2.0,2.0,71,0.00,,,0.00,,2013-07-30 17:32:00,
2013-07-30 09:43:00,64.0,54.0,-100.00,SW,230,2.0,2.0,71,0.00,,,0.00,,2013-07-30 17:43:00,
2013-07-30 10:02:00,66.0,53.0,-100.00,WSW,245,3.0,4.0,62,0.00,,,0.00,,2013-07-30 18:02:00,
2013-07-30 10:12:00,66.0,53.0,-100.00,WSW,245,3.0,4.0,62,0.00,,,0.00,,2013-07-30 18:12:00,
2013-07-30 13:32:00,80.0,54.0,-100.00,East,85,2.0,6.0,40,0.00,,,0.00,,2013-07-30 21:32:00,
2013-07-30 13:42:00,80.0,54.0,-100.00,East,85,2.0,6.0,40,0.00,,,0.00,,2013-07-30 21:42:00,
2013-07-30 14:02:00,78.0,53.0,-100.00,SE,125,5.0,10.0,43,0.00,,,0.00,,2013-07-30 22:02:00,
2013-07-30 14:12:00,78.0,53.0,-100.00,SE,125,5.0,10.0,43,0.00,,,0.00,,2013-07-30 22:12:00,
2013-07-30 14:22:00,78.0,53.0,-100.00,SSE,150,3.0,11.0,42,0.00,,,0.00,,2013-07-30 22:22:00,
2013-07-30 14:32:00,78.0,53.0,-100.00,SSE,150,3.0,11.0,42,0.00,,,0.00,,2013-07-30 22:32:00,
2013-07-30 14:43:00,78.0,53.0,-100.00,SSE,150,3.0,11.0,42,0.00,,,0.00,,2013-07-30 22:43:00,
2013-07-30 14:52:00,79.0,52.0,-100.00,East,100,1.0,11.0,40,0.00,,,0.00,,2013-07-30 22:52:00,
2013-07-30 15:02:00,79.0,52.0,-100.00,East,100,1.0,11.0,40,0.00,,,0.00,,2013-07-30 23:02:00,
2013-07-30 15:12:00,79.0,52.0,-100.00,East,100,1.0,11.0,40,0.00,,,0.00,,2013-07-30 23:12:00,
2013-07-30 15:32:00,79.0,52.0,-100.00,East,80,4.0,14.0,40,0.00,,,0.00,,2013-07-30 23:32:00,
2013-07-30 15:42:00,79.0,52.0,-100.00,East,80,4.0,14.0,40,0.00,,,0.00,,2013-07-30 23:42:00,
2013-07-30 15:53:00,78.0,52.0,-100.00,ENE,75,6.0,14.0,40,0.00,,,0.00,,2013-07-30 23:53:00,
2013-07-30 16:02:00,78.0,52.0,-100.00,ENE,75,6.0,14.0,40,0.00,,,0.00,,2013-07-31 00:02:00,
2013-07-30 16:12:00,78.0,52.0,-100.00,ENE,75,6.0,14.0,40,0.00,,,0.00,,2013-07-31 00:12:00,
2013-07-30 16:32:00,78.0,51.0,-100.00,SE,125,6.0,18.0,40,0.00,,,0.00,,2013-07-31 00:32:00,
2013-07-30 16:43:00,78.0,51.0,-100.00,SE,125,6.0,18.0,40,0.00,,,0.00,,2013-07-31 00:43:00,
2013-07-30 16:53:00,78.0,52.0,-100.00,SE,125,4.0,17.0,40,0.00,,,0.00,,2013-07-31 00:53:00,
2013-07-30 17:02:00,78.0,52.0,-100.00,SE,125,4.0,17.0,40,0.00,,,0.00,,2013-07-31 01:02:00,
2013-07-30 17:12:00,78.0,52.0,-100.00,SE,125,4.0,17.0,40,0.00,,,0.00,,2013-07-31 01:12:00,
2013-07-30 17:32:00,78.0,52.0,-100.00,SE,130,3.0,14.0,41,0.00,,,0.00,,2013-07-31 01:32:00,
2013-07-30 17:42:00,78.0,52.0,-100.00,SE,130,3.0,14.0,41,0.00,,,0.00,,2013-07-31 01:42:00,
2013-07-30 18:02:00,77.0,51.0,-100.00,SE,140,3.0,17.0,41,0.00,,,0.00,,2013-07-31 02:02:00,
2013-07-30 18:12:00,77.0,51.0,-100.00,SE,140,3.0,17.0,41,0.00,,,0.00,,2013-07-31 02:12:00,
2013-07-30 18:32:00,77.0,52.0,-100.00,ESE,110,6.0,16.0,42,0.00,,,0.00,,2013-07-31 02:32:00,
2013-07-30 18:42:00,77.0,52.0,-100.00,ESE,110,6.0,16.0,42,0.00,,,0.00,,2013-07-31 02:42:00,
2013-07-30 19:02:00,76.0,52.0,-100.00,SE,140,3.0,17.0,43,0.00,,,0.00,,2013-07-31 03:02:00,
2013-07-30 19:12:00,76.0,52.0,-100.00,SE,140,3.0,17.0,43,0.00,,,0.00,,2013-07-31 03:12:00,
2013-07-30 19:32:00,76.0,52.0,-100.00,South,175,2.0,9.0,43,0.00,,,0.00,,2013-07-31 03:32:00,
2013-07-30 19:42:00,76.0,52.0,-100.00,South,175,2.0,9.0,43,0.00,,,0.00,,2013-07-31 03:42:00,
2013-07-30 20:02:00,75.0,51.0,-100.00,SSE,165,1.0,9.0,43,0.00,,,0.00,,2013-07-31 04:02:00,
2013-07-30 20:12:00,75.0,51.0,-100.00,SSE,165,1.0,9.0,43,0.00,,,0.00,,2013-07-31 04:12:00,
2013-07-30 20:32:00,74.0,51.0,-100.00,ESE,110,3.0,10.0,44,0.00,,,0.00,,2013-07-31 04:32:00,
2013-07-30 20:42:00,74.0,51.0,-100.00,ESE,110,3.0,10.0,44,0.00,,,0.00,,2013-07-31 04:42:00,
2013-07-30 20:52:00,73.0,51.0,-100.00,ESE,120,4.0,7.0,46,0.00,,,0.00,,2013-07-31 04:52:00,
2013-07-30 21:02:00,73.0,51.0,-100.00,ESE,120,4.0,7.0,46,0.00,,,0.00,,2013-07-31 05:02:00,
2013-07-30 21:11:00,73.0,51.0,-100.00,ESE,120,4.0,7.0,46,0.00,,,0.00,,2013-07-31 05:11:00,
2013-07-30 21:32:00,69.0,51.0,-100.00,East,80,1.0,6.0,53,0.00,,,0.00,,2013-07-31 05:32:00,
2013-07-30 21:42:00,69.0,51.0,-100.00,East,80,1.0,6.0,53,0.00,,,0.00,,2013-07-31 05:42:00,
2013-07-30 21:52:00,66.0,55.0,-100.00,West,265,1.0,1.0,69,0.00,,,0.00,,2013-07-31 05:52:00,
2013-07-30 22:02:00,66.0,55.0,-100.00,West,265,1.0,1.0,69,0.00,,,0.00,,2013-07-31 06:02:00,
2013-07-30 22:12:00,66.0,55.0,-100.00,West,265,1.0,1.0,69,0.00,,,0.00,,2013-07-31 06:12:00,
2013-07-30 22:22:00,63.0,57.0,-100.00,West,265,1.0,2.0,79,0.00,,,0.00,,2013-07-31 06:22:00,
2013-07-30 22:32:00,63.0,57.0,-100.00,West,265,1.0,2.0,79,0.00,,,0.00,,2013-07-31 06:32:00,
2013-07-30 22:42:00,63.0,57.0,-100.00,West,265,1.0,2.0,79,0.00,,,0.00,,2013-07-31 06:42:00,
2013-07-30 23:02:00,61.0,57.0,-100.00,NNE,25,1.0,1.0,87,0.00,,,0.00,,2013-07-31 07:02:00,
2013-07-30 23:12:00,61.0,57.0,-100.00,NNE,25,1.0,1.0,87,0.00,,,0.00,,2013-07-31 07:12:00,
2013-07-30 23:20:00,59.0,57.0,-100.00,NNE,15,1.0,1.0,93,0.00,,,0.00,,2013-07-31 07:20:00,
2013-07-30 23:32:00,60.0,57.0,-100.00,ESE,120,0.0,0.0,91,0.00,,,0.00,,2013-07-31 07:32:00,
2013-07-30 23:43:00,60.0,57.0,-100.00,ESE,120,0.0,0.0,91,0.00,,,0.00,,2013-07-31 07:43:00,
2013-07-30 23:52:00,59.0,57.0,-100.00,NNE,15,1.0,1.0,93,0.00,,,0.00,,2013-07-31 07:52:00,